createdAt,value
2022-10-18T00:00:07.810Z,93070.25
2022-10-18T00:02:55.777Z,93075.19
2022-10-18T00:05:41.751Z,93064.88
2022-10-18T00:08:27.483Z,93059.81
2022-10-18T00:11:13.361Z,93064.44
2022-10-18T00:13:59.294Z,93070.22
2022-10-18T00:16:45.014Z,93078.56
2022-10-18T00:19:30.826Z,93090.44
2022-10-18T00:22:16.728Z,93084.28
2022-10-18T00:25:02.550Z,93081.44
2022-10-18T00:27:48.576Z,93072.97
2022-10-18T00:30:34.489Z,93073.66
2022-10-18T00:33:20.314Z,93076.19
2022-10-18T00:36:06.283Z,93072.94
2022-10-18T00:38:52.114Z,93069.16
2022-10-18T00:41:38.096Z,93080.59
2022-10-18T00:44:23.887Z,93082.63
2022-10-18T00:47:09.713Z,93080.22
2022-10-18T00:49:55.653Z,93076.56
2022-10-18T00:52:41.427Z,93083.59
2022-10-18T00:55:29.212Z,93083.91
2022-10-18T00:58:15.213Z,93080.91
2022-10-18T01:01:00.945Z,93082.81
2022-10-18T01:03:48.872Z,93076.31
2022-10-18T01:06:34.797Z,93081.25
2022-10-18T01:09:20.633Z,93089.25
2022-10-18T01:12:06.491Z,93092.31
2022-10-18T01:14:52.398Z,93086.25
2022-10-18T01:17:38.318Z,93080.94
2022-10-18T01:20:24.230Z,93077.53
2022-10-18T01:23:10.037Z,93077.06
2022-10-18T01:25:55.803Z,93067.97
2022-10-18T01:28:41.748Z,93066.16
2022-10-18T01:31:27.632Z,93069.94
2022-10-18T01:34:13.563Z,93077.84
2022-10-18T01:36:59.253Z,93076.75
2022-10-18T01:39:45.112Z,93065.31
2022-10-18T01:42:33.003Z,93065.66
2022-10-18T01:45:18.813Z,93077.94
2022-10-18T01:48:04.683Z,93075.28
2022-10-18T01:50:50.501Z,93069.56
2022-10-18T01:53:36.223Z,93076.44
2022-10-18T01:56:22.132Z,93079.41
2022-10-18T01:59:08.022Z,93075.63
2022-10-18T02:01:53.816Z,93077.19
2022-10-18T02:04:39.613Z,93072.97
2022-10-18T02:07:25.445Z,93066.06
2022-10-18T02:10:11.321Z,93065.66
2022-10-18T02:12:57.436Z,93073.34
2022-10-18T02:15:43.294Z,93065.28
2022-10-18T02:18:29.162Z,93070.25
2022-10-18T02:21:15.047Z,93059.25
2022-10-18T02:24:00.841Z,93060.75
2022-10-18T02:26:46.713Z,93060.31
2022-10-18T02:29:32.396Z,93058.88
2022-10-18T02:32:18.207Z,93057.34
2022-10-18T02:35:04.062Z,93060.41
2022-10-18T02:37:49.797Z,93062.69
2022-10-18T02:40:35.667Z,93062.69
2022-10-18T02:43:21.447Z,93062.69
2022-10-18T02:46:07.291Z,93051.69
2022-10-18T02:48:53.287Z,93050.56
2022-10-18T02:51:38.909Z,93051.34
2022-10-18T02:54:24.917Z,93053.59
2022-10-18T02:57:10.657Z,93061.97
2022-10-18T02:59:56.436Z,93058.88
2022-10-18T03:02:42.236Z,93061.53
2022-10-18T03:05:28.053Z,93056.16
2022-10-18T03:08:14.007Z,93059.22
2022-10-18T03:11:00.381Z,93056.25
2022-10-18T03:13:46.218Z,93061.19
2022-10-18T03:16:32.210Z,93063.88
2022-10-18T03:19:18.016Z,93066.50
2022-10-18T03:22:04.195Z,93071.47
2022-10-18T03:24:50.388Z,93077.88
2022-10-18T03:27:36.203Z,93085.81
2022-10-18T03:30:22.246Z,93083.22
2022-10-18T03:33:08.159Z,93085.53
2022-10-18T03:35:54.049Z,93082.84
2022-10-18T03:38:40.029Z,93085.56
2022-10-18T03:41:25.812Z,93083.22
2022-10-18T03:44:13.661Z,93087.84
2022-10-18T03:46:59.463Z,93086.63
2022-10-18T03:49:45.153Z,93083.97
2022-10-18T03:52:31.438Z,93083.97
2022-10-18T03:55:17.511Z,93096.50
2022-10-18T03:58:03.312Z,93093.47
2022-10-18T04:00:51.145Z,93107.84
2022-10-18T04:03:37.115Z,93102.28
2022-10-18T04:06:24.882Z,93112.19
2022-10-18T04:09:10.787Z,93115.22
2022-10-18T04:11:56.724Z,93124.00
2022-10-18T04:14:42.515Z,93130.41
2022-10-18T04:17:28.359Z,93133.06
2022-10-18T04:20:14.149Z,93132.66
2022-10-18T04:23:00.092Z,93121.16
2022-10-18T04:25:46.055Z,93124.69
2022-10-18T04:28:31.834Z,93125.09
2022-10-18T04:31:17.816Z,93127.38
2022-10-18T04:34:03.631Z,93125.09
2022-10-18T04:36:49.504Z,93120.91
2022-10-18T04:39:35.439Z,93105.66
2022-10-18T04:42:21.195Z,93113.66
2022-10-18T04:45:07.098Z,93108.72
2022-10-18T04:47:53.091Z,93116.75
2022-10-18T04:50:38.913Z,93118.66
2022-10-18T04:53:24.749Z,93116.34
2022-10-18T04:56:10.560Z,93107.97
2022-10-18T04:58:56.308Z,93111.03
2022-10-18T05:01:42.356Z,93109.88
2022-10-18T05:04:28.530Z,93118.28
2022-10-18T05:07:14.360Z,93125.13
2022-10-18T05:10:00.237Z,93128.94
2022-10-18T05:12:46.215Z,93130.06
2022-10-18T05:15:32.188Z,93133.41
2022-10-18T05:18:18.142Z,93122.47
2022-10-18T05:21:03.941Z,93124.72
2022-10-18T05:23:49.764Z,93129.69
2022-10-18T05:26:35.461Z,93123.56
2022-10-18T05:29:21.341Z,93127.03
2022-10-18T05:32:07.575Z,93126.66
2022-10-18T05:34:53.404Z,93121.66
2022-10-18T05:37:39.371Z,93120.88
2022-10-18T05:40:25.132Z,93117.41
2022-10-18T05:43:10.975Z,93131.81
2022-10-18T05:45:56.839Z,93130.38
2022-10-18T05:48:42.646Z,93135.28
2022-10-18T05:51:28.377Z,93127.66
2022-10-18T05:54:14.178Z,93126.53
2022-10-18T05:57:00.084Z,93126.56
2022-10-18T05:59:46.035Z,93115.97
2022-10-18T06:02:31.897Z,93125.81
2022-10-18T06:05:18.045Z,93122.09
2022-10-18T06:08:06.527Z,93119.41
2022-10-18T06:10:56.230Z,93123.63
2022-10-18T06:13:42.225Z,93128.16
2022-10-18T06:16:32.270Z,93120.50
2022-10-18T06:19:18.937Z,93122.44
2022-10-18T06:22:04.677Z,93126.16
2022-10-18T06:24:55.063Z,93130.28
2022-10-18T06:27:43.295Z,93123.44
2022-10-18T06:30:29.251Z,93130.50
2022-10-18T06:33:15.077Z,93146.53
2022-10-18T06:36:00.987Z,93143.06
2022-10-18T06:38:46.745Z,93143.41
2022-10-18T06:41:32.527Z,93148.88
2022-10-18T06:44:18.380Z,93147.91
2022-10-18T06:47:04.089Z,93141.03
2022-10-18T06:49:50.070Z,93153.25
2022-10-18T06:52:37.933Z,93159.34
2022-10-18T06:55:23.594Z,93147.56
2022-10-18T06:58:09.414Z,93152.13
2022-10-18T07:00:55.200Z,93155.22
2022-10-18T07:03:41.013Z,93160.53
2022-10-18T07:06:26.967Z,93157.88
2022-10-18T07:09:14.769Z,93158.63
2022-10-18T07:12:00.588Z,93154.81
2022-10-18T07:14:46.412Z,93151.75
2022-10-18T07:17:32.360Z,93152.47
2022-10-18T07:20:18.654Z,93154.41
2022-10-18T07:23:04.456Z,93160.91
2022-10-18T07:25:50.218Z,93161.63
2022-10-18T07:28:36.101Z,93157.34
2022-10-18T07:31:21.888Z,93155.50
2022-10-18T07:34:07.745Z,93159.63
2022-10-18T07:36:53.765Z,93165.81
2022-10-18T07:39:39.600Z,93172.69
2022-10-18T07:42:25.325Z,93174.63
2022-10-18T07:45:11.065Z,93171.97
2022-10-18T07:47:56.864Z,93171.94
2022-10-18T07:50:42.725Z,93170.03
2022-10-18T07:53:28.435Z,93182.09
2022-10-18T07:56:14.289Z,93165.47
2022-10-18T07:59:00.132Z,93171.94
2022-10-18T08:01:45.953Z,93169.69
2022-10-18T08:04:31.836Z,93166.25
2022-10-18T08:07:17.701Z,93165.84
2022-10-18T08:10:03.639Z,93168.13
2022-10-18T08:12:49.660Z,93167.75
2022-10-18T08:15:35.339Z,93177.28
2022-10-18T08:18:21.272Z,93176.13
2022-10-18T08:21:07.258Z,93171.91
2022-10-18T08:23:53.070Z,93175.38
2022-10-18T08:26:38.923Z,93179.56
2022-10-18T08:29:27.947Z,93173.09
2022-10-18T08:32:15.513Z,93167.38
2022-10-18T08:35:03.247Z,93163.97
2022-10-18T08:37:51.589Z,93169.69
2022-10-18T08:40:37.418Z,93165.88
2022-10-18T08:43:23.421Z,93161.28
2022-10-18T08:46:09.400Z,93170.06
2022-10-18T08:48:55.301Z,93165.84
2022-10-18T08:51:41.015Z,93158.63
2022-10-18T08:54:27.641Z,93163.56
2022-10-18T08:57:13.514Z,93155.56
2022-10-18T08:59:59.456Z,93157.31
2022-10-18T09:02:45.243Z,93153.97
2022-10-18T09:05:31.087Z,93152.97
2022-10-18T09:08:16.921Z,93145.03
2022-10-18T09:11:02.801Z,93138.44
2022-10-18T09:13:48.564Z,93144.59
2022-10-18T09:16:34.341Z,93149.09
2022-10-18T09:19:20.148Z,93138.75
2022-10-18T09:22:07.471Z,93136.09
2022-10-18T09:24:55.507Z,93142.03
2022-10-18T09:27:41.268Z,93136.31
2022-10-18T09:30:27.172Z,93138.19
2022-10-18T09:33:12.974Z,93136.91
2022-10-18T09:35:59.095Z,93142.19
2022-10-18T09:38:46.952Z,93138.09
2022-10-18T09:41:32.901Z,93144.38
2022-10-18T09:44:18.763Z,93140.53
2022-10-18T09:47:04.949Z,93137.38
2022-10-18T09:49:50.819Z,93132.69
2022-10-18T09:52:36.789Z,93133.38
2022-10-18T09:55:22.710Z,93129.53
2022-10-18T09:58:08.559Z,93136.88
2022-10-18T10:00:54.533Z,93129.53
2022-10-18T10:03:40.322Z,93121.19
2022-10-18T10:06:26.142Z,93126.41
2022-10-18T10:09:12.198Z,93128.75
2022-10-18T10:11:58.084Z,93119.69
2022-10-18T10:14:43.939Z,93118.81
2022-10-18T10:17:30.264Z,93120.25
2022-10-18T10:20:16.744Z,93120.63
2022-10-18T10:23:02.569Z,93118.56
2022-10-18T10:25:48.406Z,93117.16
2022-10-18T10:28:34.537Z,93131.09
2022-10-18T10:31:20.503Z,93124.44
2022-10-18T10:34:06.330Z,93123.91
2022-10-18T10:36:52.184Z,93116.97
2022-10-18T10:39:38.072Z,93123.00
2022-10-18T10:42:23.943Z,93119.09
2022-10-18T10:45:09.877Z,93118.47
2022-10-18T10:47:55.619Z,93124.72
2022-10-18T10:50:41.576Z,93121.81
2022-10-18T10:53:27.669Z,93124.84
2022-10-18T10:56:16.108Z,93118.97
2022-10-18T10:59:02.323Z,93110.28
2022-10-18T11:01:48.327Z,93112.88
2022-10-18T11:04:34.101Z,93107.91
2022-10-18T11:07:20.007Z,93100.03
2022-10-18T11:10:05.781Z,93105.91
2022-10-18T11:12:51.673Z,93100.84
2022-10-18T11:15:37.517Z,93091.66
2022-10-18T11:18:25.407Z,93099.16
2022-10-18T11:21:11.340Z,93090.75
2022-10-18T11:23:57.276Z,93090.94
2022-10-18T11:26:45.522Z,93079.66
2022-10-18T11:29:34.882Z,93078.22
2022-10-18T11:32:20.852Z,93084.00
2022-10-18T11:35:06.760Z,93079.41
2022-10-18T11:37:52.662Z,93079.88
2022-10-18T11:40:38.733Z,93076.09
2022-10-18T11:43:30.093Z,93069.69
2022-10-18T11:46:20.579Z,93072.59
2022-10-18T11:49:06.376Z,93069.03
2022-10-18T11:52:07.182Z,93061.97
2022-10-18T11:54:53.938Z,93054.34
2022-10-18T11:57:39.827Z,93043.09
2022-10-18T12:03:16.587Z,93039.94
2022-10-18T12:06:02.400Z,93037.25
2022-10-18T12:08:48.250Z,93026.56
2022-10-18T12:11:34.062Z,93031.06
2022-10-18T12:14:19.861Z,93022.50
2022-10-18T12:17:39.619Z,93028.50
2022-10-18T12:20:12.233Z,93020.97
2022-10-18T12:22:58.030Z,93017.34
2022-10-18T12:25:43.889Z,93013.25
2022-10-18T12:28:29.820Z,93010.50
2022-10-18T12:31:15.802Z,93001.13
2022-10-18T12:34:01.724Z,93002.16
2022-10-18T12:36:47.549Z,92998.78
2022-10-18T12:39:43.470Z,92998.41
2022-10-18T12:42:36.460Z,92987.50
2022-10-18T12:45:22.372Z,92993.63
2022-10-18T12:48:08.287Z,92985.34
2022-10-18T12:50:54.266Z,92985.06
2022-10-18T12:53:40.048Z,92979.00
2022-10-18T12:56:25.858Z,92975.44
2022-10-18T12:59:11.620Z,92970.91
2022-10-18T13:01:57.554Z,92974.94
2022-10-18T13:04:43.481Z,92968.56
2022-10-18T13:07:29.378Z,92970.19
2022-10-18T13:10:15.657Z,92971.22
2022-10-18T13:13:12.188Z,92975.88
2022-10-18T13:16:04.919Z,92968.78
2022-10-18T13:18:50.874Z,92969.66
2022-10-18T13:21:36.696Z,92965.97
2022-10-18T13:24:22.479Z,92955.72
2022-10-18T13:30:14.531Z,92961.09
2022-10-18T13:33:00.327Z,92967.81
2022-10-18T13:35:46.215Z,92960.72
2022-10-18T13:38:31.960Z,92962.03
2022-10-18T13:41:17.923Z,92955.19
2022-10-18T13:44:03.975Z,92959.41
2022-10-18T13:46:49.825Z,92958.94
2022-10-18T13:49:35.682Z,92963.63
2022-10-18T13:52:21.330Z,92963.91
2022-10-18T13:55:07.741Z,92969.53
2022-10-18T13:57:53.600Z,92971.31
2022-10-18T14:00:44.845Z,92974.41
2022-10-18T14:06:41.248Z,92965.69
2022-10-18T14:12:33.596Z,92966.75
2022-10-18T14:15:19.883Z,92957.44
2022-10-18T14:18:05.735Z,92967.47
2022-10-18T14:21:12.247Z,92964.84
2022-10-18T14:23:57.585Z,92964.44
2022-10-18T14:26:43.304Z,92952.63
2022-10-18T14:29:29.377Z,92950.44
2022-10-18T14:32:15.379Z,92953.47
2022-10-18T14:35:30.673Z,92952.50
2022-10-18T14:38:07.108Z,92945.56
2022-10-18T14:40:53.231Z,92947.72
2022-10-18T14:43:39.389Z,92943.03
2022-10-18T14:46:25.156Z,92940.31
2022-10-18T14:49:10.981Z,92941.34
2022-10-18T14:51:56.879Z,92943.78
2022-10-18T14:54:42.732Z,92941.25
2022-10-18T14:57:28.704Z,92939.50
2022-10-18T15:00:14.601Z,92936.69
2022-10-18T15:03:00.422Z,92940.84
2022-10-18T15:05:46.160Z,92938.75
2022-10-18T15:08:32.097Z,92937.19
2022-10-18T15:11:18.108Z,92940.56
2022-10-18T15:14:03.948Z,92935.78
2022-10-18T15:16:49.930Z,92936.91
2022-10-18T15:19:35.887Z,92929.88
2022-10-18T15:22:32.175Z,92933.72
2022-10-18T15:25:18.715Z,92933.63
2022-10-18T15:28:04.557Z,92938.69
2022-10-18T15:30:50.521Z,92939.84
2022-10-18T15:33:36.277Z,92935.97
2022-10-18T15:36:22.245Z,92933.59
2022-10-18T15:39:08.283Z,92930.47
2022-10-18T15:41:54.137Z,92928.91
2022-10-18T15:44:39.994Z,92919.31
2022-10-18T15:47:25.840Z,92914.72
2022-10-18T15:50:11.615Z,92917.81
2022-10-18T15:52:57.493Z,92916.38
2022-10-18T15:55:43.341Z,92906.00
2022-10-18T15:58:29.328Z,92909.25
2022-10-18T16:01:15.230Z,92899.69
2022-10-18T16:04:01.243Z,92896.75
2022-10-18T16:06:47.159Z,92895.28
2022-10-18T16:09:32.890Z,92893.25
2022-10-18T16:12:18.717Z,92896.16
2022-10-18T16:15:04.595Z,92898.03
2022-10-18T16:17:50.300Z,92896.72
2022-10-18T16:20:36.347Z,92891.69
2022-10-18T16:23:22.070Z,92885.84
2022-10-18T16:26:07.895Z,92887.66
2022-10-18T16:28:53.825Z,92889.22
2022-10-18T16:31:39.709Z,92886.03
2022-10-18T16:34:25.623Z,92890.69
2022-10-18T16:37:11.649Z,92893.41
2022-10-18T16:39:57.591Z,92892.63
2022-10-18T16:42:43.688Z,92887.91
2022-10-18T16:45:29.790Z,92900.16
2022-10-18T16:48:15.656Z,92905.84
2022-10-18T16:51:01.445Z,92906.47
2022-10-18T16:53:47.383Z,92908.53
2022-10-18T16:56:33.254Z,92908.91
2022-10-18T16:59:18.915Z,92910.50
2022-10-18T17:02:04.851Z,92911.34
2022-10-18T17:04:51.121Z,92910.22
2022-10-18T17:07:36.906Z,92916.81
2022-10-18T17:10:22.826Z,92913.00
2022-10-18T17:13:08.807Z,92916.50
2022-10-18T17:15:54.780Z,92914.28
2022-10-18T17:18:42.569Z,92912.38
2022-10-18T17:21:28.580Z,92925.09
2022-10-18T17:24:14.395Z,92921.66
2022-10-18T17:27:00.132Z,92924.25
2022-10-18T17:29:46.095Z,92931.59
2022-10-18T17:32:32.096Z,92927.72
2022-10-18T17:35:18.032Z,92935.78
2022-10-18T17:38:03.968Z,92942.63
2022-10-18T17:40:50.066Z,92946.06
2022-10-18T17:43:35.958Z,92940.53
2022-10-18T17:46:21.768Z,92942.69
2022-10-18T17:49:07.672Z,92940.63
2022-10-18T17:51:53.491Z,92944.25
2022-10-18T17:54:39.358Z,92944.13
2022-10-18T17:57:25.365Z,92950.53
2022-10-18T18:00:11.245Z,92951.97
2022-10-18T18:02:57.131Z,92953.78
2022-10-18T18:05:43.056Z,92951.69
2022-10-18T18:08:28.942Z,92956.47
2022-10-18T18:11:14.903Z,92952.81
2022-10-18T18:14:00.630Z,92953.66
2022-10-18T18:16:48.611Z,92957.25
2022-10-18T18:19:34.555Z,92959.72
2022-10-18T18:22:20.427Z,92957.19
2022-10-18T18:25:06.371Z,92952.28
2022-10-18T18:27:52.191Z,92955.47
2022-10-18T18:30:37.970Z,92959.06
2022-10-18T18:33:23.976Z,92960.34
2022-10-18T18:36:09.639Z,92955.13
2022-10-18T18:38:57.714Z,92959.16
2022-10-18T18:41:43.924Z,92963.50
2022-10-18T18:44:29.713Z,92962.81
2022-10-18T18:47:15.560Z,92964.16
2022-10-18T18:50:01.563Z,92968.97
2022-10-18T18:52:47.274Z,92977.59
2022-10-18T18:55:33.096Z,92968.41
2022-10-18T18:58:18.911Z,92969.25
2022-10-18T19:01:04.715Z,92960.59
2022-10-18T19:03:50.611Z,92965.19
2022-10-18T19:06:36.382Z,92953.84
2022-10-18T19:09:22.217Z,92957.28
2022-10-18T19:12:08.122Z,92956.59
2022-10-18T19:14:53.833Z,92960.47
2022-10-18T19:17:39.844Z,92952.41
2022-10-18T19:20:25.593Z,92960.09
2022-10-18T19:23:11.407Z,92959.03
2022-10-18T19:25:57.259Z,92959.09
2022-10-18T19:28:43.140Z,92958.41
2022-10-18T19:31:29.017Z,92954.28
2022-10-18T19:34:14.855Z,92948.56
2022-10-18T19:37:00.819Z,92954.34
2022-10-18T19:42:32.319Z,92949.88
2022-10-18T19:45:18.241Z,92950.28
2022-10-18T19:48:04.193Z,92946.50
2022-10-18T19:50:50.082Z,92951.88
2022-10-18T19:53:35.896Z,92946.91
2022-10-18T19:56:21.876Z,92946.56
2022-10-18T19:59:07.723Z,92946.97
2022-10-18T20:01:53.723Z,92946.22
2022-10-18T20:04:39.540Z,92942.84
2022-10-18T20:07:25.373Z,92950.13
2022-10-18T20:10:11.196Z,92949.81
2022-10-18T20:12:56.981Z,92947.13
2022-10-18T20:15:43.025Z,92942.59
2022-10-18T20:18:28.734Z,92935.28
2022-10-18T20:21:14.725Z,92934.19
2022-10-18T20:24:00.639Z,92930.00
2022-10-18T20:26:46.433Z,92927.72
2022-10-18T20:29:32.314Z,92935.41
2022-10-18T20:32:18.137Z,92941.53
2022-10-18T20:35:03.994Z,92941.91
2022-10-18T20:37:51.767Z,92942.31
2022-10-18T20:40:37.668Z,92936.97
2022-10-18T20:43:23.642Z,92936.63
2022-10-18T20:46:09.761Z,92930.50
2022-10-18T20:48:55.541Z,92937.78
2022-10-18T20:51:41.597Z,92930.16
2022-10-18T20:54:29.540Z,92935.50
2022-10-18T20:57:17.363Z,92933.19
2022-10-18T21:00:03.284Z,92938.19
2022-10-18T21:02:49.207Z,92925.97
2022-10-18T21:05:34.941Z,92938.63
2022-10-18T21:08:20.763Z,92927.91
2022-10-18T21:11:06.667Z,92933.25
2022-10-18T21:13:52.601Z,92928.66
2022-10-18T21:16:38.462Z,92937.88
2022-10-18T21:19:24.155Z,92927.91
2022-10-18T21:22:10.103Z,92927.47
2022-10-18T21:24:55.861Z,92925.22
2022-10-18T21:27:41.689Z,92922.94
2022-10-18T21:30:27.670Z,92928.72
2022-10-18T21:33:13.437Z,92928.72
2022-10-18T21:35:59.463Z,92927.97
2022-10-18T21:38:45.372Z,92926.41
2022-10-18T21:41:31.176Z,92924.16
2022-10-18T21:44:16.998Z,92913.88
2022-10-18T21:47:02.777Z,92910.06
2022-10-18T21:49:48.653Z,92910.88
2022-10-18T21:52:34.893Z,92907.88
2022-10-18T21:55:20.721Z,92909.44
2022-10-18T21:58:06.666Z,92906.06
2022-10-18T22:00:52.665Z,92899.25
2022-10-18T22:03:38.571Z,92896.28
2022-10-18T22:06:24.498Z,92884.88
2022-10-18T22:09:10.323Z,92884.94
2022-10-18T22:11:58.136Z,92889.59
2022-10-18T22:14:44.026Z,92881.28
2022-10-18T22:17:30.018Z,92881.34
2022-10-18T22:20:16.361Z,92886.34
2022-10-18T22:23:02.121Z,92885.22
2022-10-18T22:25:47.877Z,92888.75
2022-10-18T22:28:33.802Z,92878.41
2022-10-18T22:31:19.693Z,92873.88
2022-10-18T22:34:05.546Z,92876.97
2022-10-18T22:36:51.368Z,92877.78
2022-10-18T22:39:37.235Z,92872.84
2022-10-18T22:42:23.323Z,92873.22
2022-10-18T22:45:09.283Z,92868.31
2022-10-18T22:47:57.145Z,92872.16
2022-10-18T22:50:43.029Z,92865.31
2022-10-18T22:53:28.855Z,92863.44
2022-10-18T22:56:14.677Z,92858.91
2022-10-18T22:59:00.706Z,92860.47
2022-10-18T23:01:48.658Z,92852.09
2022-10-18T23:04:34.351Z,92848.72
2022-10-18T23:07:21.232Z,92850.63
2022-10-18T23:10:06.989Z,92849.53
2022-10-18T23:12:52.883Z,92844.94
2022-10-18T23:15:38.707Z,92845.34
2022-10-18T23:18:24.396Z,92846.84
2022-10-18T23:21:10.375Z,92854.13
2022-10-18T23:23:56.229Z,92843.47
2022-10-18T23:26:41.988Z,92839.34
2022-10-18T23:29:27.780Z,92840.16
2022-10-18T23:32:13.494Z,92840.53
2022-10-18T23:34:59.351Z,92836.34
2022-10-18T23:37:45.210Z,92836.41
2022-10-18T23:40:30.924Z,92830.72
2022-10-18T23:43:16.806Z,92825.00
2022-10-18T23:46:02.432Z,92830.78
2022-10-18T23:48:48.113Z,92829.66
2022-10-18T23:51:33.881Z,92831.22
2022-10-18T23:54:19.677Z,92836.97
2022-10-18T23:57:05.485Z,92832.78
2022-10-18T23:59:51.223Z,92836.63
